createdAt,value
2018-02-13T00:00:01.439Z,5.73
2018-02-13T00:02:29.377Z,6.53
2018-02-13T00:04:56.739Z,5.90
2018-02-13T00:07:24.073Z,5.03
2018-02-13T00:09:51.434Z,6.30
2018-02-13T00:12:18.871Z,6.50
2018-02-13T00:14:46.329Z,5.40
2018-02-13T00:17:13.664Z,4.73
2018-02-13T00:19:41.024Z,6.40
2018-02-13T00:22:08.492Z,6.10
2018-02-13T00:24:35.960Z,6.30
2018-02-13T00:27:03.319Z,6.40
2018-02-13T00:29:30.672Z,6.30
2018-02-13T00:31:58.036Z,5.93
2018-02-13T00:34:25.508Z,5.93
2018-02-13T00:36:52.862Z,7.07
2018-02-13T00:39:20.215Z,6.80
2018-02-13T00:41:47.569Z,5.37
2018-02-13T00:44:14.907Z,5.80
2018-02-13T00:46:42.307Z,5.70
2018-02-13T00:49:09.640Z,6.27
2018-02-13T00:51:37.098Z,6.10
2018-02-13T00:54:04.520Z,5.70
2018-02-13T00:56:31.864Z,6.20
2018-02-13T00:58:59.224Z,5.20
2018-02-13T01:01:26.553Z,6.63
2018-02-13T01:03:53.940Z,5.57
2018-02-13T01:06:21.275Z,6.57
2018-02-13T01:08:48.647Z,5.63
2018-02-13T01:11:15.998Z,5.93
2018-02-13T01:13:43.364Z,5.90
2018-02-13T01:16:10.706Z,5.83
2018-02-13T01:18:38.099Z,4.60
2018-02-13T01:21:05.440Z,5.33
2018-02-13T01:23:32.810Z,5.53
2018-02-13T01:26:00.178Z,4.77
2018-02-13T01:28:27.516Z,4.13
2018-02-13T01:30:54.868Z,4.93
2018-02-13T01:33:22.213Z,4.40
2018-02-13T01:35:49.565Z,5.63
2018-02-13T01:38:16.936Z,4.37
2018-02-13T01:40:44.305Z,5.33
2018-02-13T01:43:11.710Z,4.70
2018-02-13T01:45:39.104Z,4.93
2018-02-13T01:48:06.524Z,5.07
2018-02-13T01:50:33.849Z,5.60
2018-02-13T01:53:01.216Z,4.57
2018-02-13T01:55:28.546Z,3.97
2018-02-13T01:57:55.899Z,4.60
2018-02-13T02:00:23.302Z,4.83
2018-02-13T02:02:50.654Z,4.80
2018-02-13T02:05:17.981Z,4.50
2018-02-13T02:07:45.328Z,4.90
2018-02-13T02:10:12.702Z,4.70
2018-02-13T02:12:40.035Z,4.87
2018-02-13T02:15:07.424Z,4.47
2018-02-13T02:17:34.762Z,5.40
2018-02-13T02:20:02.113Z,5.33
2018-02-13T02:22:29.492Z,4.50
2018-02-13T02:24:56.850Z,5.00
2018-02-13T02:27:24.179Z,5.13
2018-02-13T02:29:51.555Z,4.47
2018-02-13T02:32:18.894Z,4.80
2018-02-13T02:34:46.226Z,4.10
2018-02-13T02:37:13.580Z,4.63
2018-02-13T02:39:40.915Z,5.20
2018-02-13T02:42:08.286Z,4.80
2018-02-13T02:44:35.619Z,4.60
2018-02-13T02:47:02.985Z,5.73
2018-02-13T02:49:30.317Z,5.07
2018-02-13T02:51:57.726Z,5.70
2018-02-13T02:54:25.080Z,5.67
2018-02-13T02:56:52.449Z,5.10
2018-02-13T02:59:19.809Z,5.80
2018-02-13T03:01:47.165Z,4.40
2018-02-13T03:04:14.623Z,5.10
2018-02-13T03:06:41.946Z,5.10
2018-02-13T03:09:09.306Z,5.10
2018-02-13T03:11:36.646Z,4.67
2018-02-13T03:14:04.014Z,5.20
2018-02-13T03:16:31.342Z,5.40
2018-02-13T03:18:58.717Z,4.13
2018-02-13T03:21:26.038Z,5.13
2018-02-13T03:23:53.362Z,4.57
2018-02-13T03:26:21.166Z,5.80
2018-02-13T03:28:48.529Z,5.00
2018-02-13T03:31:15.889Z,6.60
2018-02-13T03:33:43.257Z,4.70
2018-02-13T03:36:10.635Z,5.20
2018-02-13T03:38:37.962Z,4.87
2018-02-13T03:41:05.287Z,5.17
2018-02-13T03:43:33.616Z,5.20
2018-02-13T03:46:00.955Z,4.60
2018-02-13T03:48:28.320Z,4.73
2018-02-13T03:50:55.649Z,4.43
2018-02-13T03:53:23.012Z,4.60
2018-02-13T03:55:50.347Z,5.33
2018-02-13T03:58:17.731Z,4.63
2018-02-13T04:00:45.058Z,5.40
2018-02-13T04:03:12.473Z,4.73
2018-02-13T04:05:39.789Z,4.90
2018-02-13T04:08:07.119Z,4.90
2018-02-13T04:10:34.487Z,5.80
2018-02-13T04:13:01.825Z,5.90
2018-02-13T04:15:29.199Z,5.00
2018-02-13T04:17:56.596Z,5.40
2018-02-13T04:20:23.962Z,5.47
2018-02-13T04:22:51.290Z,5.20
2018-02-13T04:25:18.762Z,7.03
2018-02-13T04:27:46.094Z,5.90
2018-02-13T04:30:13.467Z,5.60
2018-02-13T04:32:40.800Z,6.47
2018-02-13T04:35:08.166Z,6.07
2018-02-13T04:37:35.535Z,6.40
2018-02-13T04:40:02.886Z,5.80
2018-02-13T04:42:30.233Z,5.73
2018-02-13T04:44:57.578Z,6.73
2018-02-13T04:47:24.935Z,6.40
2018-02-13T04:49:52.280Z,5.77
2018-02-13T04:52:19.767Z,6.90
2018-02-13T04:54:47.122Z,5.80
2018-02-13T04:57:14.490Z,6.20
2018-02-13T04:59:41.819Z,5.63
2018-02-13T05:02:09.153Z,5.90
2018-02-13T05:04:36.530Z,6.07
2018-02-13T05:07:03.871Z,6.50
2018-02-13T05:09:31.250Z,6.40
2018-02-13T05:11:58.606Z,6.40
2018-02-13T05:14:26.066Z,6.60
2018-02-13T05:16:53.408Z,5.70
2018-02-13T05:19:20.767Z,6.10
2018-02-13T05:21:48.126Z,5.97
2018-02-13T05:24:15.527Z,6.00
2018-02-13T05:26:42.860Z,7.33
2018-02-13T05:29:10.220Z,6.60
2018-02-13T05:31:37.587Z,5.40
2018-02-13T05:34:04.923Z,6.67
2018-02-13T05:36:32.289Z,6.63
2018-02-13T05:38:59.622Z,6.27
2018-02-13T05:41:26.998Z,6.90
2018-02-13T05:43:54.328Z,6.40
2018-02-13T05:46:21.775Z,6.33
2018-02-13T05:48:49.116Z,7.07
2018-02-13T05:51:16.486Z,6.50
2018-02-13T05:53:43.824Z,7.20
2018-02-13T05:56:11.182Z,7.27
2018-02-13T05:58:38.521Z,6.37
2018-02-13T06:01:05.862Z,6.90
2018-02-13T06:03:33.226Z,7.00
2018-02-13T06:06:00.566Z,6.90
2018-02-13T06:08:27.915Z,6.70
2018-02-13T06:10:55.246Z,6.83
2018-02-13T06:13:22.602Z,7.23
2018-02-13T06:15:49.921Z,6.47
2018-02-13T06:18:17.278Z,6.50
2018-02-13T06:20:44.638Z,6.20
2018-02-13T06:23:12.014Z,7.13
2018-02-13T06:25:39.350Z,7.67
2018-02-13T06:28:06.789Z,6.90
2018-02-13T06:30:34.159Z,6.50
2018-02-13T06:33:01.620Z,6.33
2018-02-13T06:35:28.974Z,7.00
2018-02-13T06:37:56.305Z,6.60
2018-02-13T06:40:23.667Z,7.97
2018-02-13T06:42:51.021Z,7.20
2018-02-13T06:45:18.381Z,7.17
2018-02-13T06:47:45.722Z,6.60
2018-02-13T06:50:13.055Z,6.10
2018-02-13T06:52:40.451Z,6.60
2018-02-13T06:55:07.810Z,6.07
2018-02-13T06:57:35.158Z,5.90
2018-02-13T07:00:02.494Z,6.27
2018-02-13T07:02:29.977Z,6.00
2018-02-13T07:04:57.307Z,6.50
2018-02-13T07:07:24.697Z,6.27
2018-02-13T07:09:52.040Z,6.83
2018-02-13T07:12:19.499Z,5.90
2018-02-13T07:14:46.835Z,7.40
2018-02-13T07:17:14.178Z,29.00
2018-02-13T07:19:41.545Z,29.30
2018-02-13T07:22:08.949Z,7.77
2018-02-13T07:24:36.308Z,6.40
2018-02-13T07:27:03.637Z,7.37
2018-02-13T07:29:31.002Z,6.10
2018-02-13T07:31:58.439Z,6.53
2018-02-13T07:34:25.790Z,6.37
2018-02-13T07:36:53.131Z,6.20
2018-02-13T07:39:20.579Z,5.80
2018-02-13T07:41:47.970Z,5.63
2018-02-13T07:44:15.335Z,8.70
2018-02-13T07:46:42.690Z,5.63
2018-02-13T07:49:10.024Z,6.50
2018-02-13T07:51:37.481Z,5.30
2018-02-13T07:54:04.825Z,5.80
2018-02-13T07:56:32.189Z,5.83
2018-02-13T07:58:59.547Z,5.93
2018-02-13T08:01:27.003Z,5.00
2018-02-13T08:03:54.333Z,6.30
2018-02-13T08:06:21.699Z,6.47
2018-02-13T08:08:49.024Z,5.77
2018-02-13T08:11:16.386Z,5.90
2018-02-13T08:13:43.714Z,6.37
2018-02-13T08:16:11.088Z,5.87
2018-02-13T08:18:38.420Z,6.40
2018-02-13T08:21:05.839Z,5.70
2018-02-13T08:23:33.187Z,6.10
2018-02-13T08:26:00.536Z,5.60
2018-02-13T08:28:27.890Z,6.80
2018-02-13T08:30:55.259Z,6.00
2018-02-13T08:33:22.619Z,5.60
2018-02-13T08:35:49.969Z,5.20
2018-02-13T08:38:17.335Z,6.03
2018-02-13T08:40:44.668Z,5.90
2018-02-13T08:43:12.162Z,6.50
2018-02-13T08:45:39.517Z,5.33
2018-02-13T08:48:06.850Z,8.70
2018-02-13T08:50:34.330Z,7.27
2018-02-13T08:53:01.691Z,6.87
2018-02-13T08:55:29.094Z,6.53
2018-02-13T08:57:56.442Z,5.40
2018-02-13T09:00:23.844Z,6.60
2018-02-13T09:02:51.189Z,7.27
2018-02-13T09:05:18.557Z,5.30
2018-02-13T09:07:45.914Z,6.23
2018-02-13T09:10:13.258Z,5.30
2018-02-13T09:12:40.622Z,5.50
2018-02-13T09:15:07.955Z,5.33
2018-02-13T09:17:35.363Z,6.23
2018-02-13T09:20:02.703Z,6.00
2018-02-13T09:22:30.220Z,6.30
2018-02-13T09:24:57.549Z,5.63
2018-02-13T09:27:24.915Z,5.87
2018-02-13T09:29:52.249Z,6.73
2018-02-13T09:32:19.577Z,5.50
2018-02-13T09:34:46.933Z,5.10
2018-02-13T09:37:14.259Z,5.50
2018-02-13T09:39:41.614Z,5.70
2018-02-13T09:42:08.955Z,4.77
2018-02-13T09:44:36.311Z,5.57
2018-02-13T09:47:03.634Z,5.13
2018-02-13T09:49:30.990Z,5.00
2018-02-13T09:51:58.322Z,6.30
2018-02-13T09:54:25.735Z,5.80
2018-02-13T09:56:53.063Z,5.63
2018-02-13T09:59:20.389Z,5.47
2018-02-13T10:01:47.743Z,5.00
2018-02-13T10:04:15.149Z,5.30
2018-02-13T10:06:42.532Z,5.00
2018-02-13T10:09:09.868Z,5.07
2018-02-13T10:11:37.228Z,5.37
2018-02-13T10:14:04.553Z,5.00
2018-02-13T10:16:31.920Z,5.67
2018-02-13T10:18:59.254Z,6.03
2018-02-13T10:21:26.626Z,5.50
2018-02-13T10:23:53.981Z,4.93
2018-02-13T10:26:21.354Z,5.73
2018-02-13T10:28:48.687Z,5.90
2018-02-13T10:31:16.052Z,5.50
2018-02-13T10:33:43.514Z,5.30
2018-02-13T10:36:10.838Z,5.60
2018-02-13T10:38:38.194Z,5.50
2018-02-13T10:41:05.522Z,5.70
2018-02-13T10:43:32.900Z,4.93
2018-02-13T10:46:00.234Z,5.47
2018-02-13T10:48:27.604Z,12.30
2018-02-13T10:50:54.938Z,5.77
2018-02-13T10:53:22.322Z,4.50
2018-02-13T10:55:49.658Z,4.13
2018-02-13T10:58:17.045Z,3.63
2018-02-13T11:00:50.095Z,4.43
2018-02-13T11:03:17.422Z,4.23
2018-02-13T11:05:44.786Z,3.87
2018-02-13T11:08:12.143Z,3.40
2018-02-13T11:10:39.493Z,3.20
2018-02-13T11:13:06.822Z,3.70
2018-02-13T11:15:34.186Z,4.30
2018-02-13T11:18:01.526Z,3.03
2018-02-13T11:20:29.033Z,2.83
2018-02-13T11:22:56.350Z,2.50
2018-02-13T11:25:23.714Z,2.97
2018-02-13T11:27:51.039Z,1.60
2018-02-13T11:30:18.379Z,2.10
2018-02-13T11:32:45.756Z,1.60
2018-02-13T11:35:13.096Z,2.50
2018-02-13T11:37:40.448Z,3.13
2018-02-13T11:40:07.777Z,2.30
2018-02-13T11:42:35.153Z,1.80
2018-02-13T11:45:02.507Z,2.07
2018-02-13T11:47:29.860Z,2.40
2018-02-13T11:49:57.192Z,3.00
2018-02-13T11:52:24.538Z,2.60
2018-02-13T11:54:51.871Z,3.00
2018-02-13T11:57:19.308Z,3.53
2018-02-13T11:59:46.661Z,3.07
2018-02-13T12:02:13.992Z,3.60
2018-02-13T12:04:41.366Z,2.60
2018-02-13T12:07:08.711Z,3.23
2018-02-13T12:09:36.079Z,2.90
2018-02-13T12:12:03.402Z,2.80
2018-02-13T12:14:30.749Z,2.30
2018-02-13T12:16:58.079Z,2.70
2018-02-13T12:19:25.478Z,2.80
2018-02-13T12:21:52.806Z,2.67
2018-02-13T12:24:20.314Z,3.07
2018-02-13T12:26:47.665Z,2.60
2018-02-13T12:29:14.997Z,2.77
2018-02-13T12:31:42.346Z,3.10
2018-02-13T12:34:09.677Z,2.57
2018-02-13T12:36:37.188Z,2.80
2018-02-13T12:39:04.513Z,2.70
2018-02-13T12:41:31.854Z,2.73
2018-02-13T12:43:59.682Z,2.30
2018-02-13T12:46:27.012Z,1.90
2018-02-13T12:48:54.367Z,1.97
2018-02-13T12:51:21.686Z,1.87
2018-02-13T12:53:49.043Z,2.53
2018-02-13T12:56:16.393Z,2.10
2018-02-13T12:58:43.785Z,2.40
2018-02-13T13:01:11.133Z,2.07
2018-02-13T13:03:38.465Z,2.40
2018-02-13T13:06:05.820Z,2.20
2018-02-13T13:08:33.177Z,1.93
2018-02-13T13:11:00.539Z,2.63
2018-02-13T13:13:27.871Z,2.50
2018-02-13T13:15:55.225Z,2.43
2018-02-13T13:18:22.552Z,3.00
2018-02-13T13:20:49.901Z,2.50
2018-02-13T13:23:17.229Z,2.47
2018-02-13T13:25:44.592Z,3.03
2018-02-13T13:28:11.918Z,2.90
2018-02-13T13:30:39.302Z,2.77
2018-02-13T13:33:06.659Z,2.83
2018-02-13T13:35:33.990Z,3.10
2018-02-13T13:38:01.349Z,2.70
2018-02-13T13:40:28.676Z,2.67
2018-02-13T13:42:56.042Z,3.37
2018-02-13T13:45:23.365Z,2.77
2018-02-13T13:47:50.728Z,4.10
2018-02-13T13:50:18.055Z,4.80
2018-02-13T13:52:45.409Z,4.07
2018-02-13T13:55:12.852Z,2.77
2018-02-13T13:57:40.175Z,2.57
2018-02-13T14:00:07.530Z,2.40
2018-02-13T14:02:34.925Z,3.03
2018-02-13T14:05:02.375Z,2.73
2018-02-13T14:07:29.701Z,2.30
2018-02-13T14:09:57.093Z,2.97
2018-02-13T14:12:24.427Z,2.80
2018-02-13T14:14:51.755Z,3.80
2018-02-13T14:17:31.949Z,2.93
2018-02-13T14:19:59.287Z,2.63
2018-02-13T14:22:26.642Z,3.43
2018-02-13T14:24:53.994Z,2.97
2018-02-13T14:27:21.353Z,2.40
2018-02-13T14:29:48.709Z,3.10
2018-02-13T14:32:16.179Z,3.10
2018-02-13T14:34:43.503Z,2.27
2018-02-13T14:37:10.871Z,3.23
2018-02-13T14:39:38.236Z,2.87
2018-02-13T14:42:05.621Z,3.33
2018-02-13T14:44:32.965Z,3.03
2018-02-13T14:47:00.292Z,2.37
2018-02-13T14:49:27.643Z,2.40
2018-02-13T14:51:55.114Z,2.70
2018-02-13T14:54:22.461Z,3.13
2018-02-13T14:56:49.785Z,2.50
2018-02-13T14:59:17.136Z,2.97
2018-02-13T15:01:44.459Z,2.87
2018-02-13T15:04:11.826Z,2.33
2018-02-13T15:06:39.155Z,2.43
2018-02-13T15:09:06.539Z,2.00
2018-02-13T15:11:33.955Z,2.27
2018-02-13T15:14:01.300Z,2.30
2018-02-13T15:16:28.655Z,3.00
2018-02-13T15:18:55.990Z,2.60
2018-02-13T15:21:23.339Z,3.10
2018-02-13T15:23:50.666Z,2.43
2018-02-13T15:26:18.030Z,2.90
2018-02-13T15:28:45.370Z,2.97
2018-02-13T15:31:12.696Z,2.20
2018-02-13T15:33:40.055Z,3.13
2018-02-13T15:36:07.403Z,2.93
2018-02-13T15:38:34.754Z,3.00
2018-02-13T15:41:02.091Z,2.80
2018-02-13T15:43:29.446Z,3.37
2018-02-13T15:45:56.784Z,3.73
2018-02-13T15:48:24.171Z,3.63
2018-02-13T15:50:51.522Z,3.97
2018-02-13T15:53:18.857Z,3.40
2018-02-13T15:55:46.209Z,4.10
2018-02-13T15:58:13.535Z,4.77
2018-02-13T16:00:40.887Z,4.07
2018-02-13T16:03:08.210Z,3.80
2018-02-13T16:05:35.563Z,4.27
2018-02-13T16:08:02.890Z,4.83
2018-02-13T16:10:30.256Z,6.73
2018-02-13T16:12:57.595Z,5.43
2018-02-13T16:15:24.958Z,4.60
2018-02-13T16:17:52.306Z,5.30
2018-02-13T16:20:19.636Z,4.40
2018-02-13T16:22:46.994Z,4.37
2018-02-13T16:25:14.335Z,4.10
2018-02-13T16:27:41.687Z,4.43
2018-02-13T16:30:09.010Z,4.27
2018-02-13T16:32:36.360Z,5.10
2018-02-13T16:35:03.696Z,4.00
2018-02-13T16:37:31.062Z,4.60
2018-02-13T16:39:58.398Z,4.83
2018-02-13T16:42:25.763Z,5.50
2018-02-13T16:44:53.081Z,5.03
2018-02-13T16:47:20.413Z,5.80
2018-02-13T16:49:47.759Z,5.17
2018-02-13T16:52:15.195Z,5.10
2018-02-13T16:54:42.555Z,4.70
2018-02-13T16:57:09.905Z,4.63
2018-02-13T16:59:37.255Z,4.67
2018-02-13T17:02:04.593Z,12.40
2018-02-13T17:04:31.961Z,5.30
2018-02-13T17:06:59.285Z,5.80
2018-02-13T17:09:26.680Z,4.90
2018-02-13T17:11:54.010Z,4.23
2018-02-13T17:14:21.345Z,3.63
2018-02-13T17:16:48.692Z,3.97
2018-02-13T17:19:16.033Z,4.80
2018-02-13T17:21:43.454Z,4.40
2018-02-13T17:24:10.788Z,4.70
2018-02-13T17:26:38.144Z,4.97
2018-02-13T17:29:05.477Z,4.67
2018-02-13T17:31:32.830Z,4.47
2018-02-13T17:34:00.190Z,3.50
2018-02-13T17:36:27.538Z,3.93
2018-02-13T17:38:54.870Z,3.70
2018-02-13T17:41:22.199Z,4.50
2018-02-13T17:43:49.553Z,3.83
2018-02-13T17:46:16.901Z,5.53
2018-02-13T17:48:44.256Z,4.40
2018-02-13T17:51:11.592Z,5.63
2018-02-13T17:53:38.954Z,4.70
2018-02-13T17:56:06.288Z,6.13
2018-02-13T17:58:33.651Z,5.93
2018-02-13T18:01:00.991Z,6.33
2018-02-13T18:03:28.356Z,6.10
2018-02-13T18:05:55.693Z,6.70
2018-02-13T18:08:23.051Z,6.63
2018-02-13T18:10:50.375Z,6.23
2018-02-13T18:13:17.714Z,6.70
2018-02-13T18:15:45.162Z,5.50
2018-02-13T18:18:12.502Z,6.23
2018-02-13T18:20:39.858Z,5.90
2018-02-13T18:23:07.191Z,5.50
2018-02-13T18:25:34.560Z,5.70
2018-02-13T18:28:01.894Z,6.67
2018-02-13T18:30:29.287Z,6.77
2018-02-13T18:32:56.626Z,6.73
2018-02-13T18:35:23.954Z,7.13
2018-02-13T18:37:51.308Z,7.00
2018-02-13T18:40:18.647Z,6.70
2018-02-13T18:42:46.002Z,6.33
2018-02-13T18:45:13.397Z,5.37
2018-02-13T18:47:40.765Z,6.40
2018-02-13T18:50:08.434Z,6.30
2018-02-13T18:55:03.144Z,6.03
2018-02-13T18:57:30.502Z,5.90
2018-02-13T18:59:57.833Z,5.80
2018-02-13T19:02:25.207Z,6.53
2018-02-13T19:04:52.646Z,6.57
2018-02-13T19:07:19.980Z,6.43
2018-02-13T19:09:47.379Z,5.73
2018-02-13T19:12:14.706Z,5.00
2018-02-13T19:14:42.068Z,6.00
2018-02-13T19:19:36.767Z,5.83
2018-02-13T19:22:04.090Z,6.03
2018-02-13T19:24:31.458Z,5.50
2018-02-13T19:26:58.791Z,5.90
2018-02-13T19:29:26.151Z,5.63
2018-02-13T19:31:53.499Z,5.20
2018-02-13T19:34:20.825Z,6.10
2018-02-13T19:36:48.185Z,5.27
2018-02-13T19:39:15.524Z,5.60
2018-02-13T19:41:42.871Z,5.70
2018-02-13T19:44:10.206Z,6.20
2018-02-13T19:46:37.558Z,5.70
2018-02-13T19:49:04.913Z,6.40
2018-02-13T19:51:32.275Z,6.60
2018-02-13T19:54:00.022Z,5.63
2018-02-13T19:56:27.439Z,5.80
2018-02-13T19:58:54.980Z,7.13
2018-02-13T20:01:22.306Z,6.37
2018-02-13T20:03:49.667Z,6.83
2018-02-13T20:06:17.003Z,6.50
2018-02-13T20:08:44.368Z,6.40
2018-02-13T20:11:11.698Z,6.80
2018-02-13T20:13:39.078Z,6.63
2018-02-13T20:16:06.415Z,6.40
2018-02-13T20:18:33.819Z,6.63
2018-02-13T20:21:01.151Z,7.50
2018-02-13T20:23:28.483Z,9.57
2018-02-13T20:25:55.844Z,8.83
2018-02-13T20:28:23.185Z,8.00
2018-02-13T20:30:50.550Z,7.80
2018-02-13T20:33:17.883Z,6.73
2018-02-13T20:35:45.306Z,7.43
2018-02-13T20:38:12.634Z,6.37
2018-02-13T20:40:40.039Z,6.67
2018-02-13T20:43:07.461Z,7.27
2018-02-13T20:45:34.807Z,6.73
2018-02-13T20:48:02.174Z,7.30
2018-02-13T20:50:29.534Z,6.73
2018-02-13T20:52:56.907Z,5.93
2018-02-13T20:55:24.238Z,6.40
2018-02-13T20:57:51.604Z,6.47
2018-02-13T21:00:18.947Z,6.13
2018-02-13T21:02:46.301Z,6.90
2018-02-13T21:05:13.642Z,7.40
2018-02-13T21:07:41.048Z,5.77
2018-02-13T21:10:08.381Z,7.13
2018-02-13T21:12:35.713Z,7.27
2018-02-13T21:15:03.081Z,6.70
2018-02-13T21:17:30.442Z,6.50
2018-02-13T21:19:57.845Z,6.53
2018-02-13T21:22:25.166Z,7.10
2018-02-13T21:24:52.527Z,7.53
2018-02-13T21:27:19.960Z,7.20
2018-02-13T21:29:47.324Z,7.30
2018-02-13T21:32:14.661Z,7.37
2018-02-13T21:34:42.006Z,7.97
2018-02-13T21:37:09.384Z,8.47
2018-02-13T21:39:36.720Z,7.40
2018-02-13T21:42:04.086Z,8.17
2018-02-13T21:44:31.451Z,8.27
2018-02-13T21:46:58.844Z,7.33
2018-02-13T21:49:26.180Z,7.13
2018-02-13T21:51:53.537Z,6.60
2018-02-13T21:54:20.965Z,7.03
2018-02-13T21:56:48.392Z,7.57
2018-02-13T21:59:15.722Z,7.30
2018-02-13T22:01:43.063Z,7.40
2018-02-13T22:04:10.429Z,6.77
2018-02-13T22:06:37.771Z,7.40
2018-02-13T22:09:05.151Z,7.10
2018-02-13T22:11:32.491Z,7.20
2018-02-13T22:13:59.896Z,6.73
2018-02-13T22:16:27.218Z,7.67
2018-02-13T22:18:54.549Z,8.13
2018-02-13T22:21:21.908Z,7.90
2018-02-13T22:23:49.271Z,8.07
2018-02-13T22:26:16.629Z,7.77
2018-02-13T22:28:43.966Z,7.27
2018-02-13T22:31:11.316Z,6.47
2018-02-13T22:33:38.657Z,7.00
2018-02-13T22:36:06.030Z,8.20
2018-02-13T22:38:33.385Z,7.40
2018-02-13T22:41:00.731Z,8.30
2018-02-13T22:43:29.026Z,7.63
2018-02-13T22:45:56.370Z,8.03
2018-02-13T22:48:23.747Z,8.40
2018-02-13T22:50:51.107Z,8.57
2018-02-13T22:53:18.474Z,8.77
2018-02-13T22:55:45.818Z,8.57
2018-02-13T22:58:13.178Z,7.70
2018-02-13T23:00:40.519Z,8.27
2018-02-13T23:03:07.895Z,9.10
2018-02-13T23:05:35.262Z,8.37
2018-02-13T23:08:02.638Z,9.80
2018-02-13T23:10:29.981Z,9.00
2018-02-13T23:12:57.312Z,9.37
2018-02-13T23:15:24.675Z,8.73
2018-02-13T23:17:52.011Z,9.10
2018-02-13T23:20:19.373Z,9.43
2018-02-13T23:22:46.709Z,9.27
2018-02-13T23:25:14.083Z,10.10
2018-02-13T23:27:41.418Z,9.80
2018-02-13T23:30:08.777Z,8.93
2018-02-13T23:32:36.141Z,9.30
2018-02-13T23:35:03.527Z,9.65
2018-02-13T23:37:30.871Z,8.30
2018-02-13T23:39:58.206Z,8.60
2018-02-13T23:42:25.592Z,9.27
2018-02-13T23:44:52.956Z,9.77
2018-02-13T23:47:20.346Z,8.87
2018-02-13T23:49:47.681Z,10.67
2018-02-13T23:52:15.086Z,10.30
2018-02-13T23:54:42.423Z,10.30
2018-02-13T23:57:09.799Z,10.43
2018-02-13T23:59:37.189Z,9.97
